sensor_id;sensor_type;location;lat;lon;timestamp;P1;durP1;ratioP1;P2;durP2;ratioP2
32824;SDS011;51060;42.640;24.356;2023-10-09T00:01:05;3.97;;;1.77;;
32824;SDS011;51060;42.640;24.356;2023-10-09T00:03:38;6.53;;;2.13;;
32824;SDS011;51060;42.640;24.356;2023-10-09T00:06:04;4.43;;;1.80;;
32824;SDS011;51060;42.640;24.356;2023-10-09T00:08:30;5.45;;;1.83;;
32824;SDS011;51060;42.640;24.356;2023-10-09T00:10:56;6.32;;;2.00;;
32824;SDS011;51060;42.640;24.356;2023-10-09T00:13:49;4.13;;;2.10;;
32824;SDS011;51060;42.640;24.356;2023-10-09T00:16:17;4.85;;;2.00;;
32824;SDS011;51060;42.640;24.356;2023-10-09T00:18:49;5.93;;;2.05;;
32824;SDS011;51060;42.640;24.356;2023-10-09T00:21:17;5.20;;;2.28;;
32824;SDS011;51060;42.640;24.356;2023-10-09T00:23:47;4.25;;;1.70;;
32824;SDS011;51060;42.640;24.356;2023-10-09T00:26:21;4.70;;;2.00;;
32824;SDS011;51060;42.640;24.356;2023-10-09T00:28:48;4.65;;;2.00;;
32824;SDS011;51060;42.640;24.356;2023-10-09T00:31:16;3.47;;;1.95;;
32824;SDS011;51060;42.640;24.356;2023-10-09T00:33:52;6.57;;;1.95;;
32824;SDS011;51060;42.640;24.356;2023-10-09T00:36:20;4.90;;;2.05;;
32824;SDS011;51060;42.640;24.356;2023-10-09T00:38:53;4.70;;;2.00;;
32824;SDS011;51060;42.640;24.356;2023-10-09T00:41:19;5.00;;;2.13;;
32824;SDS011;51060;42.640;24.356;2023-10-09T00:43:50;4.93;;;2.17;;
32824;SDS011;51060;42.640;24.356;2023-10-09T00:46:17;4.90;;;2.00;;
32824;SDS011;51060;42.640;24.356;2023-10-09T00:48:48;7.25;;;2.28;;
32824;SDS011;51060;42.640;24.356;2023-10-09T00:51:17;5.15;;;2.00;;
32824;SDS011;51060;42.640;24.356;2023-10-09T00:53:50;4.50;;;2.13;;
32824;SDS011;51060;42.640;24.356;2023-10-09T00:56:20;8.32;;;2.33;;
32824;SDS011;51060;42.640;24.356;2023-10-09T00:58:55;4.63;;;2.17;;
32824;SDS011;51060;42.640;24.356;2023-10-09T01:01:38;4.63;;;2.20;;
32824;SDS011;51060;42.640;24.356;2023-10-09T01:04:05;5.85;;;2.20;;
32824;SDS011;51060;42.640;24.356;2023-10-09T01:06:44;4.03;;;2.03;;
32824;SDS011;51060;42.640;24.356;2023-10-09T01:09:29;3.83;;;2.08;;
32824;SDS011;51060;42.640;24.356;2023-10-09T01:12:01;4.95;;;2.17;;
32824;SDS011;51060;42.640;24.356;2023-10-09T01:14:27;3.10;;;2.33;;
32824;SDS011;51060;42.640;24.356;2023-10-09T01:16:53;5.05;;;2.33;;
32824;SDS011;51060;42.640;24.356;2023-10-09T01:19:20;6.28;;;2.30;;
32824;SDS011;51060;42.640;24.356;2023-10-09T01:21:52;5.43;;;2.47;;
32824;SDS011;51060;42.640;24.356;2023-10-09T01:24:18;4.88;;;2.58;;
32824;SDS011;51060;42.640;24.356;2023-10-09T01:26:48;4.60;;;2.60;;
32824;SDS011;51060;42.640;24.356;2023-10-09T01:31:47;5.57;;;2.60;;
32824;SDS011;51060;42.640;24.356;2023-10-09T01:34:23;4.32;;;2.42;;
32824;SDS011;51060;42.640;24.356;2023-10-09T01:36:52;5.28;;;2.28;;
32824;SDS011;51060;42.640;24.356;2023-10-09T01:39:25;6.68;;;2.42;;
32824;SDS011;51060;42.640;24.356;2023-10-09T01:42:04;2.50;;;2.05;;
32824;SDS011;51060;42.640;24.356;2023-10-09T01:44:31;3.45;;;2.08;;
32824;SDS011;51060;42.640;24.356;2023-10-09T01:47:04;4.00;;;1.95;;
32824;SDS011;51060;42.640;24.356;2023-10-09T01:49:34;3.75;;;2.13;;
32824;SDS011;51060;42.640;24.356;2023-10-09T01:52:02;3.38;;;2.00;;
32824;SDS011;51060;42.640;24.356;2023-10-09T01:54:38;5.55;;;2.25;;
32824;SDS011;51060;42.640;24.356;2023-10-09T01:57:06;2.13;;;1.83;;
32824;SDS011;51060;42.640;24.356;2023-10-09T01:59:38;3.50;;;2.08;;
32824;SDS011;51060;42.640;24.356;2023-10-09T02:02:09;5.13;;;2.22;;
32824;SDS011;51060;42.640;24.356;2023-10-09T02:04:54;3.97;;;2.42;;
32824;SDS011;51060;42.640;24.356;2023-10-09T02:07:36;3.83;;;2.17;;
32824;SDS011;51060;42.640;24.356;2023-10-09T02:10:18;4.47;;;2.25;;
32824;SDS011;51060;42.640;24.356;2023-10-09T02:12:55;3.85;;;2.17;;
32824;SDS011;51060;42.640;24.356;2023-10-09T02:15:30;5.15;;;2.20;;
32824;SDS011;51060;42.640;24.356;2023-10-09T02:18:20;6.63;;;2.30;;
32824;SDS011;51060;42.640;24.356;2023-10-09T02:20:49;4.70;;;2.17;;
32824;SDS011;51060;42.640;24.356;2023-10-09T02:23:30;3.38;;;2.25;;
32824;SDS011;51060;42.640;24.356;2023-10-09T02:26:14;3.35;;;2.28;;
32824;SDS011;51060;42.640;24.356;2023-10-09T02:28:53;5.18;;;2.08;;
32824;SDS011;51060;42.640;24.356;2023-10-09T02:31:29;4.30;;;2.10;;
32824;SDS011;51060;42.640;24.356;2023-10-09T02:34:00;2.83;;;1.80;;
32824;SDS011;51060;42.640;24.356;2023-10-09T02:36:30;3.97;;;2.00;;
32824;SDS011;51060;42.640;24.356;2023-10-09T02:38:56;3.58;;;2.42;;
32824;SDS011;51060;42.640;24.356;2023-10-09T02:41:22;2.83;;;2.13;;
32824;SDS011;51060;42.640;24.356;2023-10-09T02:43:48;2.30;;;1.70;;
32824;SDS011;51060;42.640;24.356;2023-10-09T02:46:20;2.95;;;2.00;;
32824;SDS011;51060;42.640;24.356;2023-10-09T02:48:54;3.40;;;2.10;;
32824;SDS011;51060;42.640;24.356;2023-10-09T02:51:23;2.38;;;1.70;;
32824;SDS011;51060;42.640;24.356;2023-10-09T02:53:59;3.33;;;2.10;;
32824;SDS011;51060;42.640;24.356;2023-10-09T02:56:36;4.53;;;1.83;;
32824;SDS011;51060;42.640;24.356;2023-10-09T02:59:04;4.95;;;1.70;;
32824;SDS011;51060;42.640;24.356;2023-10-09T03:01:33;3.45;;;2.03;;
32824;SDS011;51060;42.640;24.356;2023-10-09T03:04:08;3.78;;;2.05;;
32824;SDS011;51060;42.640;24.356;2023-10-09T03:06:39;3.78;;;2.00;;
32824;SDS011;51060;42.640;24.356;2023-10-09T03:09:18;2.58;;;1.80;;
32824;SDS011;51060;42.640;24.356;2023-10-09T03:11:51;5.30;;;2.00;;
32824;SDS011;51060;42.640;24.356;2023-10-09T03:14:20;2.92;;;1.80;;
32824;SDS011;51060;42.640;24.356;2023-10-09T03:16:46;4.57;;;1.48;;
32824;SDS011;51060;42.640;24.356;2023-10-09T03:19:15;3.70;;;2.00;;
32824;SDS011;51060;42.640;24.356;2023-10-09T03:21:41;2.22;;;1.50;;
32824;SDS011;51060;42.640;24.356;2023-10-09T03:24:07;2.03;;;1.60;;
32824;SDS011;51060;42.640;24.356;2023-10-09T03:26:36;3.13;;;1.75;;
32824;SDS011;51060;42.640;24.356;2023-10-09T03:29:02;2.65;;;1.30;;
32824;SDS011;51060;42.640;24.356;2023-10-09T03:31:32;4.30;;;1.58;;
32824;SDS011;51060;42.640;24.356;2023-10-09T03:34:01;2.65;;;1.48;;
32824;SDS011;51060;42.640;24.356;2023-10-09T03:36:28;3.47;;;1.88;;
32824;SDS011;51060;42.640;24.356;2023-10-09T03:38:55;3.13;;;1.90;;
32824;SDS011;51060;42.640;24.356;2023-10-09T03:41:26;3.63;;;1.98;;
32824;SDS011;51060;42.640;24.356;2023-10-09T03:43:52;2.92;;;1.70;;
32824;SDS011;51060;42.640;24.356;2023-10-09T03:46:19;1.65;;;1.55;;
32824;SDS011;51060;42.640;24.356;2023-10-09T03:48:58;3.47;;;1.70;;
32824;SDS011;51060;42.640;24.356;2023-10-09T03:51:29;4.43;;;1.50;;
32824;SDS011;51060;42.640;24.356;2023-10-09T03:53:54;2.70;;;1.70;;
32824;SDS011;51060;42.640;24.356;2023-10-09T03:56:20;2.80;;;1.50;;
32824;SDS011;51060;42.640;24.356;2023-10-09T03:58:47;2.60;;;1.63;;
32824;SDS011;51060;42.640;24.356;2023-10-09T04:01:20;1.85;;;1.48;;
32824;SDS011;51060;42.640;24.356;2023-10-09T04:04:02;2.60;;;1.52;;
32824;SDS011;51060;42.640;24.356;2023-10-09T04:06:31;2.78;;;1.55;;
32824;SDS011;51060;42.640;24.356;2023-10-09T04:09:00;3.97;;;1.60;;
32824;SDS011;51060;42.640;24.356;2023-10-09T04:11:44;3.93;;;1.80;;
32824;SDS011;51060;42.640;24.356;2023-10-09T04:14:12;2.90;;;1.50;;
32824;SDS011;51060;42.640;24.356;2023-10-09T04:16:49;2.80;;;1.60;;
32824;SDS011;51060;42.640;24.356;2023-10-09T04:19:27;4.27;;;1.80;;
32824;SDS011;51060;42.640;24.356;2023-10-09T04:21:53;2.30;;;1.50;;
32824;SDS011;51060;42.640;24.356;2023-10-09T04:24:20;1.38;;;1.27;;
32824;SDS011;51060;42.640;24.356;2023-10-09T04:26:46;2.83;;;1.40;;
32824;SDS011;51060;42.640;24.356;2023-10-09T04:29:15;2.83;;;1.33;;
32824;SDS011;51060;42.640;24.356;2023-10-09T04:32:05;3.07;;;1.40;;
32824;SDS011;51060;42.640;24.356;2023-10-09T04:34:41;2.60;;;1.53;;
32824;SDS011;51060;42.640;24.356;2023-10-09T04:37:42;3.17;;;1.80;;
32824;SDS011;51060;42.640;24.356;2023-10-09T04:40:10;2.58;;;1.50;;
32824;SDS011;51060;42.640;24.356;2023-10-09T04:42:58;5.65;;;3.17;;
32824;SDS011;51060;42.640;24.356;2023-10-09T04:45:24;8.80;;;6.43;;
32824;SDS011;51060;42.640;24.356;2023-10-09T04:48:09;4.27;;;3.53;;
32824;SDS011;51060;42.640;24.356;2023-10-09T04:50:35;6.57;;;2.60;;
32824;SDS011;51060;42.640;24.356;2023-10-09T04:53:01;5.70;;;3.10;;
32824;SDS011;51060;42.640;24.356;2023-10-09T04:55:45;8.73;;;7.83;;
32824;SDS011;51060;42.640;24.356;2023-10-09T04:58:25;7.03;;;6.33;;
32824;SDS011;51060;42.640;24.356;2023-10-09T05:00:53;5.73;;;4.10;;
32824;SDS011;51060;42.640;24.356;2023-10-09T05:03:25;6.30;;;4.33;;
32824;SDS011;51060;42.640;24.356;2023-10-09T05:06:08;3.90;;;3.00;;
32824;SDS011;51060;42.640;24.356;2023-10-09T05:08:49;4.78;;;3.38;;
32824;SDS011;51060;42.640;24.356;2023-10-09T05:11:19;2.30;;;1.97;;
32824;SDS011;51060;42.640;24.356;2023-10-09T05:14:19;2.00;;;1.63;;
32824;SDS011;51060;42.640;24.356;2023-10-09T05:17:05;2.47;;;1.10;;
32824;SDS011;51060;42.640;24.356;2023-10-09T05:19:31;3.10;;;1.30;;
32824;SDS011;51060;42.640;24.356;2023-10-09T05:22:15;2.73;;;1.30;;
32824;SDS011;51060;42.640;24.356;2023-10-09T05:25:01;2.43;;;1.43;;
32824;SDS011;51060;42.640;24.356;2023-10-09T05:27:27;2.70;;;1.50;;
32824;SDS011;51060;42.640;24.356;2023-10-09T05:30:15;1.43;;;1.30;;
32824;SDS011;51060;42.640;24.356;2023-10-09T05:32:51;2.30;;;1.40;;
32824;SDS011;51060;42.640;24.356;2023-10-09T05:35:23;1.77;;;1.27;;
32824;SDS011;51060;42.640;24.356;2023-10-09T05:38:06;1.33;;;1.23;;
32824;SDS011;51060;42.640;24.356;2023-10-09T05:40:41;2.90;;;1.23;;
32824;SDS011;51060;42.640;24.356;2023-10-09T05:43:09;1.60;;;1.20;;
32824;SDS011;51060;42.640;24.356;2023-10-09T05:45:55;2.20;;;1.03;;
32824;SDS011;51060;42.640;24.356;2023-10-09T05:48:33;2.03;;;1.03;;
32824;SDS011;51060;42.640;24.356;2023-10-09T05:51:18;2.33;;;1.30;;
32824;SDS011;51060;42.640;24.356;2023-10-09T05:54:02;2.00;;;1.80;;
32824;SDS011;51060;42.640;24.356;2023-10-09T05:56:57;3.10;;;2.38;;
32824;SDS011;51060;42.640;24.356;2023-10-09T05:59:45;4.90;;;3.57;;
32824;SDS011;51060;42.640;24.356;2023-10-09T06:02:29;12.43;;;8.18;;
32824;SDS011;51060;42.640;24.356;2023-10-09T06:05:30;2.83;;;2.03;;
32824;SDS011;51060;42.640;24.356;2023-10-09T06:08:28;2.30;;;1.40;;
32824;SDS011;51060;42.640;24.356;2023-10-09T06:11:10;3.63;;;1.50;;
32824;SDS011;51060;42.640;24.356;2023-10-09T06:13:55;2.42;;;1.45;;
32824;SDS011;51060;42.640;24.356;2023-10-09T06:16:37;2.35;;;1.40;;
32824;SDS011;51060;42.640;24.356;2023-10-09T06:19:08;1.88;;;1.35;;
32824;SDS011;51060;42.640;24.356;2023-10-09T06:21:51;1.83;;;1.23;;
32824;SDS011;51060;42.640;24.356;2023-10-09T06:24:20;1.38;;;1.20;;
32824;SDS011;51060;42.640;24.356;2023-10-09T06:26:49;1.67;;;1.00;;
32824;SDS011;51060;42.640;24.356;2023-10-09T06:29:24;2.13;;;1.30;;
32824;SDS011;51060;42.640;24.356;2023-10-09T06:32:03;3.72;;;1.60;;
32824;SDS011;51060;42.640;24.356;2023-10-09T06:34:42;1.40;;;1.13;;
32824;SDS011;51060;42.640;24.356;2023-10-09T06:37:10;1.95;;;1.40;;
32824;SDS011;51060;42.640;24.356;2023-10-09T06:39:59;2.80;;;1.27;;
32824;SDS011;51060;42.640;24.356;2023-10-09T06:42:54;2.13;;;1.33;;
32824;SDS011;51060;42.640;24.356;2023-10-09T06:45:20;1.40;;;1.20;;
32824;SDS011;51060;42.640;24.356;2023-10-09T06:47:46;1.80;;;1.30;;
32824;SDS011;51060;42.640;24.356;2023-10-09T06:50:34;2.50;;;1.08;;
32824;SDS011;51060;42.640;24.356;2023-10-09T06:53:23;1.50;;;1.38;;
32824;SDS011;51060;42.640;24.356;2023-10-09T06:56:11;2.10;;;1.20;;
32824;SDS011;51060;42.640;24.356;2023-10-09T06:58:48;2.03;;;0.98;;
32824;SDS011;51060;42.640;24.356;2023-10-09T07:01:37;1.75;;;1.08;;
32824;SDS011;51060;42.640;24.356;2023-10-09T07:04:02;1.67;;;1.08;;
32824;SDS011;51060;42.640;24.356;2023-10-09T07:06:44;3.42;;;1.05;;
32824;SDS011;51060;42.640;24.356;2023-10-09T07:09:14;1.23;;;1.00;;
32824;SDS011;51060;42.640;24.356;2023-10-09T07:14:13;1.70;;;1.00;;
32824;SDS011;51060;42.640;24.356;2023-10-09T07:17:02;1.17;;;0.85;;
32824;SDS011;51060;42.640;24.356;2023-10-09T07:19:47;1.70;;;1.08;;
32824;SDS011;51060;42.640;24.356;2023-10-09T07:22:13;2.97;;;1.00;;
32824;SDS011;51060;42.640;24.356;2023-10-09T07:24:48;1.75;;;0.80;;
32824;SDS011;51060;42.640;24.356;2023-10-09T07:27:39;2.13;;;1.20;;
32824;SDS011;51060;42.640;24.356;2023-10-09T07:30:11;2.00;;;1.10;;
32824;SDS011;51060;42.640;24.356;2023-10-09T07:38:25;4.85;;;2.00;;
32824;SDS011;51060;42.640;24.356;2023-10-09T07:41:00;6.65;;;2.83;;
32824;SDS011;51060;42.640;24.356;2023-10-09T07:46:14;7.13;;;3.40;;
32824;SDS011;51060;42.640;24.356;2023-10-09T07:49:03;9.02;;;3.80;;
32824;SDS011;51060;42.640;24.356;2023-10-09T07:51:40;8.60;;;3.92;;
32824;SDS011;51060;42.640;24.356;2023-10-09T07:54:11;6.22;;;2.70;;
32824;SDS011;51060;42.640;24.356;2023-10-09T07:56:40;6.20;;;2.80;;
32824;SDS011;51060;42.640;24.356;2023-10-09T07:59:09;6.78;;;2.95;;
32824;SDS011;51060;42.640;24.356;2023-10-09T08:01:41;5.97;;;3.50;;
32824;SDS011;51060;42.640;24.356;2023-10-09T08:04:26;6.97;;;2.90;;
32824;SDS011;51060;42.640;24.356;2023-10-09T08:07:10;7.35;;;3.13;;
32824;SDS011;51060;42.640;24.356;2023-10-09T08:09:53;11.05;;;3.58;;
32824;SDS011;51060;42.640;24.356;2023-10-09T08:12:37;4.60;;;1.60;;
32824;SDS011;51060;42.640;24.356;2023-10-09T08:15:15;5.60;;;1.75;;
32824;SDS011;51060;42.640;24.356;2023-10-09T08:17:51;5.10;;;1.50;;
32824;SDS011;51060;42.640;24.356;2023-10-09T08:20:43;3.55;;;1.17;;
32824;SDS011;51060;42.640;24.356;2023-10-09T08:23:27;6.07;;;2.42;;
32824;SDS011;51060;42.640;24.356;2023-10-09T08:26:19;4.40;;;2.33;;
32824;SDS011;51060;42.640;24.356;2023-10-09T08:28:54;4.72;;;1.80;;
32824;SDS011;51060;42.640;24.356;2023-10-09T08:31:40;4.57;;;1.60;;
32824;SDS011;51060;42.640;24.356;2023-10-09T08:34:14;4.93;;;2.10;;
32824;SDS011;51060;42.640;24.356;2023-10-09T08:37:00;5.68;;;2.33;;
32824;SDS011;51060;42.640;24.356;2023-10-09T08:39:26;2.10;;;1.45;;
32824;SDS011;51060;42.640;24.356;2023-10-09T08:41:52;6.05;;;2.35;;
32824;SDS011;51060;42.640;24.356;2023-10-09T08:44:22;5.32;;;2.22;;
32824;SDS011;51060;42.640;24.356;2023-10-09T08:46:52;5.95;;;2.22;;
32824;SDS011;51060;42.640;24.356;2023-10-09T08:49:19;5.10;;;1.90;;
32824;SDS011;51060;42.640;24.356;2023-10-09T08:51:46;7.80;;;3.42;;
32824;SDS011;51060;42.640;24.356;2023-10-09T08:54:13;2.20;;;1.50;;
32824;SDS011;51060;42.640;24.356;2023-10-09T08:56:40;3.83;;;2.10;;
32824;SDS011;51060;42.640;24.356;2023-10-09T08:59:15;4.55;;;2.05;;
32824;SDS011;51060;42.640;24.356;2023-10-09T09:01:44;2.80;;;1.42;;
32824;SDS011;51060;42.640;24.356;2023-10-09T09:04:36;2.25;;;1.40;;
32824;SDS011;51060;42.640;24.356;2023-10-09T09:07:06;2.90;;;1.27;;
32824;SDS011;51060;42.640;24.356;2023-10-09T09:09:37;3.17;;;2.20;;
32824;SDS011;51060;42.640;24.356;2023-10-09T09:12:03;5.40;;;2.50;;
32824;SDS011;51060;42.640;24.356;2023-10-09T09:14:37;3.33;;;2.35;;
32824;SDS011;51060;42.640;24.356;2023-10-09T09:17:03;4.15;;;2.22;;
32824;SDS011;51060;42.640;24.356;2023-10-09T09:19:31;4.95;;;2.40;;
32824;SDS011;51060;42.640;24.356;2023-10-09T09:21:58;4.53;;;1.40;;
32824;SDS011;51060;42.640;24.356;2023-10-09T09:24:36;4.55;;;1.40;;
32824;SDS011;51060;42.640;24.356;2023-10-09T09:27:03;4.63;;;1.45;;
32824;SDS011;51060;42.640;24.356;2023-10-09T09:32:06;4.10;;;1.50;;
32824;SDS011;51060;42.640;24.356;2023-10-09T09:37:12;3.72;;;1.48;;
32824;SDS011;51060;42.640;24.356;2023-10-09T09:39:44;2.70;;;1.48;;
32824;SDS011;51060;42.640;24.356;2023-10-09T09:42:13;4.10;;;1.50;;
32824;SDS011;51060;42.640;24.356;2023-10-09T09:44:39;3.88;;;1.50;;
32824;SDS011;51060;42.640;24.356;2023-10-09T09:47:14;2.58;;;1.10;;
32824;SDS011;51060;42.640;24.356;2023-10-09T09:49:53;2.75;;;1.50;;
32824;SDS011;51060;42.640;24.356;2023-10-09T09:52:25;2.42;;;1.45;;
32824;SDS011;51060;42.640;24.356;2023-10-09T09:54:52;1.88;;;1.20;;
32824;SDS011;51060;42.640;24.356;2023-10-09T09:57:18;2.50;;;1.10;;
32824;SDS011;51060;42.640;24.356;2023-10-09T09:59:51;1.80;;;1.00;;
32824;SDS011;51060;42.640;24.356;2023-10-09T10:02:21;2.15;;;1.45;;
32824;SDS011;51060;42.640;24.356;2023-10-09T10:04:51;1.88;;;1.20;;
32824;SDS011;51060;42.640;24.356;2023-10-09T10:07:20;1.65;;;1.10;;
32824;SDS011;51060;42.640;24.356;2023-10-09T10:09:49;6.70;;;1.33;;
32824;SDS011;51060;42.640;24.356;2023-10-09T10:13:04;4.45;;;1.50;;
32824;SDS011;51060;42.640;24.356;2023-10-09T10:15:42;2.20;;;1.20;;
32824;SDS011;51060;42.640;24.356;2023-10-09T10:18:52;2.30;;;1.20;;
32824;SDS011;51060;42.640;24.356;2023-10-09T10:21:25;2.03;;;1.00;;
32824;SDS011;51060;42.640;24.356;2023-10-09T10:24:00;1.65;;;1.10;;
32824;SDS011;51060;42.640;24.356;2023-10-09T10:26:35;2.65;;;1.45;;
32824;SDS011;51060;42.640;24.356;2023-10-09T10:32:00;3.63;;;1.85;;
32824;SDS011;51060;42.640;24.356;2023-10-09T10:37:36;1.65;;;1.10;;
32824;SDS011;51060;42.640;24.356;2023-10-09T10:40:09;4.13;;;1.30;;
32824;SDS011;51060;42.640;24.356;2023-10-09T10:43:00;1.63;;;1.00;;
32824;SDS011;51060;42.640;24.356;2023-10-09T10:45:35;1.70;;;1.27;;
32824;SDS011;51060;42.640;24.356;2023-10-09T10:48:04;1.98;;;0.70;;
32824;SDS011;51060;42.640;24.356;2023-10-09T10:50:34;1.92;;;1.48;;
32824;SDS011;51060;42.640;24.356;2023-10-09T10:53:13;1.67;;;1.25;;
32824;SDS011;51060;42.640;24.356;2023-10-09T10:55:53;1.00;;;0.80;;
32824;SDS011;51060;42.640;24.356;2023-10-09T10:58:23;1.83;;;1.13;;
32824;SDS011;51060;42.640;24.356;2023-10-09T11:01:00;2.53;;;1.25;;
32824;SDS011;51060;42.640;24.356;2023-10-09T11:03:37;2.53;;;1.35;;
32824;SDS011;51060;42.640;24.356;2023-10-09T11:06:39;1.52;;;1.02;;
32824;SDS011;51060;42.640;24.356;2023-10-09T11:09:07;1.88;;;1.10;;
32824;SDS011;51060;42.640;24.356;2023-10-09T11:11:51;4.15;;;1.40;;
32824;SDS011;51060;42.640;24.356;2023-10-09T11:14:20;1.80;;;1.00;;
32824;SDS011;51060;42.640;24.356;2023-10-09T11:16:52;2.50;;;1.33;;
32824;SDS011;51060;42.640;24.356;2023-10-09T11:19:22;1.88;;;1.00;;
32824;SDS011;51060;42.640;24.356;2023-10-09T11:21:55;3.88;;;1.10;;
32824;SDS011;51060;42.640;24.356;2023-10-09T11:24:44;2.30;;;0.98;;
32824;SDS011;51060;42.640;24.356;2023-10-09T11:27:12;3.70;;;1.10;;
32824;SDS011;51060;42.640;24.356;2023-10-09T11:29:49;2.67;;;0.95;;
32824;SDS011;51060;42.640;24.356;2023-10-09T11:32:17;1.75;;;1.08;;
32824;SDS011;51060;42.640;24.356;2023-10-09T11:34:47;3.05;;;1.40;;
32824;SDS011;51060;42.640;24.356;2023-10-09T11:37:20;2.92;;;1.13;;
32824;SDS011;51060;42.640;24.356;2023-10-09T11:39:59;2.00;;;1.30;;
32824;SDS011;51060;42.640;24.356;2023-10-09T11:42:29;1.45;;;0.93;;
32824;SDS011;51060;42.640;24.356;2023-10-09T11:45:18;2.42;;;1.00;;
32824;SDS011;51060;42.640;24.356;2023-10-09T11:47:50;2.67;;;1.15;;
32824;SDS011;51060;42.640;24.356;2023-10-09T11:53:19;1.35;;;0.93;;
32824;SDS011;51060;42.640;24.356;2023-10-09T11:55:47;1.60;;;1.10;;
32824;SDS011;51060;42.640;24.356;2023-10-09T11:58:17;4.47;;;2.00;;
32824;SDS011;51060;42.640;24.356;2023-10-09T12:00:56;3.25;;;1.30;;
32824;SDS011;51060;42.640;24.356;2023-10-09T12:03:32;1.75;;;0.98;;
32824;SDS011;51060;42.640;24.356;2023-10-09T12:05:58;2.38;;;1.15;;
32824;SDS011;51060;42.640;24.356;2023-10-09T12:08:37;1.95;;;1.23;;
32824;SDS011;51060;42.640;24.356;2023-10-09T12:11:07;1.10;;;0.95;;
32824;SDS011;51060;42.640;24.356;2023-10-09T12:13:36;5.55;;;2.72;;
32824;SDS011;51060;42.640;24.356;2023-10-09T12:16:07;1.48;;;1.10;;
32824;SDS011;51060;42.640;24.356;2023-10-09T12:18:36;1.75;;;1.10;;
32824;SDS011;51060;42.640;24.356;2023-10-09T12:21:04;1.20;;;0.95;;
32824;SDS011;51060;42.640;24.356;2023-10-09T12:23:31;2.08;;;1.35;;
32824;SDS011;51060;42.640;24.356;2023-10-09T12:26:03;2.75;;;1.02;;
32824;SDS011;51060;42.640;24.356;2023-10-09T12:28:29;2.67;;;1.10;;
32824;SDS011;51060;42.640;24.356;2023-10-09T12:30:55;1.25;;;0.98;;
32824;SDS011;51060;42.640;24.356;2023-10-09T12:33:26;1.70;;;1.23;;
32824;SDS011;51060;42.640;24.356;2023-10-09T12:35:53;2.50;;;1.00;;
32824;SDS011;51060;42.640;24.356;2023-10-09T12:38:25;2.50;;;1.20;;
32824;SDS011;51060;42.640;24.356;2023-10-09T12:41:03;2.17;;;1.08;;
32824;SDS011;51060;42.640;24.356;2023-10-09T12:43:50;1.60;;;1.10;;
32824;SDS011;51060;42.640;24.356;2023-10-09T12:46:20;2.35;;;1.13;;
32824;SDS011;51060;42.640;24.356;2023-10-09T12:48:51;2.05;;;1.00;;
32824;SDS011;51060;42.640;24.356;2023-10-09T12:51:19;1.38;;;0.90;;
32824;SDS011;51060;42.640;24.356;2023-10-09T12:53:46;2.38;;;1.00;;
32824;SDS011;51060;42.640;24.356;2023-10-09T12:56:25;2.55;;;0.90;;
32824;SDS011;51060;42.640;24.356;2023-10-09T12:59:03;4.75;;;1.00;;
32824;SDS011;51060;42.640;24.356;2023-10-09T13:01:40;2.30;;;0.95;;
32824;SDS011;51060;42.640;24.356;2023-10-09T13:04:12;2.45;;;1.00;;
32824;SDS011;51060;42.640;24.356;2023-10-09T13:06:41;1.73;;;1.05;;
32824;SDS011;51060;42.640;24.356;2023-10-09T13:09:15;1.48;;;0.90;;
32824;SDS011;51060;42.640;24.356;2023-10-09T13:11:49;1.70;;;1.25;;
32824;SDS011;51060;42.640;24.356;2023-10-09T13:14:16;1.15;;;1.00;;
32824;SDS011;51060;42.640;24.356;2023-10-09T13:16:50;3.65;;;2.35;;
32824;SDS011;51060;42.640;24.356;2023-10-09T13:19:17;3.22;;;1.88;;
32824;SDS011;51060;42.640;24.356;2023-10-09T13:21:43;2.55;;;1.02;;
32824;SDS011;51060;42.640;24.356;2023-10-09T13:24:09;4.28;;;1.15;;
32824;SDS011;51060;42.640;24.356;2023-10-09T13:26:41;2.60;;;0.90;;
32824;SDS011;51060;42.640;24.356;2023-10-09T13:29:10;1.83;;;1.17;;
32824;SDS011;51060;42.640;24.356;2023-10-09T13:31:37;2.08;;;1.20;;
32824;SDS011;51060;42.640;24.356;2023-10-09T13:34:06;1.90;;;1.42;;
32824;SDS011;51060;42.640;24.356;2023-10-09T13:36:35;2.53;;;1.58;;
32824;SDS011;51060;42.640;24.356;2023-10-09T13:39:05;1.13;;;1.02;;
32824;SDS011;51060;42.640;24.356;2023-10-09T13:41:57;1.75;;;1.20;;
32824;SDS011;51060;42.640;24.356;2023-10-09T13:44:33;1.20;;;0.95;;
32824;SDS011;51060;42.640;24.356;2023-10-09T13:47:03;3.17;;;1.50;;
32824;SDS011;51060;42.640;24.356;2023-10-09T13:49:34;5.35;;;2.15;;
32824;SDS011;51060;42.640;24.356;2023-10-09T13:52:05;3.97;;;1.10;;
32824;SDS011;51060;42.640;24.356;2023-10-09T13:54:32;1.35;;;1.02;;
32824;SDS011;51060;42.640;24.356;2023-10-09T13:56:58;1.98;;;1.40;;
32824;SDS011;51060;42.640;24.356;2023-10-09T13:59:24;3.80;;;1.02;;
32824;SDS011;51060;42.640;24.356;2023-10-09T14:01:51;1.65;;;1.38;;
32824;SDS011;51060;42.640;24.356;2023-10-09T14:04:20;1.50;;;1.10;;
32824;SDS011;51060;42.640;24.356;2023-10-09T14:06:46;1.10;;;0.95;;
32824;SDS011;51060;42.640;24.356;2023-10-09T14:09:12;2.03;;;0.98;;
32824;SDS011;51060;42.640;24.356;2023-10-09T14:11:57;2.97;;;1.10;;
32824;SDS011;51060;42.640;24.356;2023-10-09T14:14:42;1.42;;;1.02;;
32824;SDS011;51060;42.640;24.356;2023-10-09T14:17:21;5.30;;;1.25;;
32824;SDS011;51060;42.640;24.356;2023-10-09T14:19:53;5.15;;;2.33;;
32824;SDS011;51060;42.640;24.356;2023-10-09T14:22:20;1.90;;;1.20;;
32824;SDS011;51060;42.640;24.356;2023-10-09T14:24:49;2.17;;;1.10;;
32824;SDS011;51060;42.640;24.356;2023-10-09T14:27:20;1.70;;;1.60;;
32824;SDS011;51060;42.640;24.356;2023-10-09T14:29:49;3.88;;;2.83;;
32824;SDS011;51060;42.640;24.356;2023-10-09T14:32:15;3.63;;;1.98;;
32824;SDS011;51060;42.640;24.356;2023-10-09T14:34:44;4.20;;;2.88;;
32824;SDS011;51060;42.640;24.356;2023-10-09T14:37:16;6.70;;;4.63;;
32824;SDS011;51060;42.640;24.356;2023-10-09T14:39:45;4.07;;;2.00;;
32824;SDS011;51060;42.640;24.356;2023-10-09T14:42:15;3.10;;;1.80;;
32824;SDS011;51060;42.640;24.356;2023-10-09T14:44:41;12.07;;;8.35;;
32824;SDS011;51060;42.640;24.356;2023-10-09T14:47:07;11.80;;;7.57;;
32824;SDS011;51060;42.640;24.356;2023-10-09T14:49:33;10.00;;;6.57;;
32824;SDS011;51060;42.640;24.356;2023-10-09T14:52:04;10.25;;;7.55;;
32824;SDS011;51060;42.640;24.356;2023-10-09T14:54:34;4.82;;;3.65;;
32824;SDS011;51060;42.640;24.356;2023-10-09T14:57:00;5.38;;;3.10;;
32824;SDS011;51060;42.640;24.356;2023-10-09T14:59:26;5.93;;;2.65;;
32824;SDS011;51060;42.640;24.356;2023-10-09T15:01:51;4.70;;;2.75;;
32824;SDS011;51060;42.640;24.356;2023-10-09T15:04:19;4.90;;;3.38;;
32824;SDS011;51060;42.640;24.356;2023-10-09T15:06:45;5.85;;;3.75;;
32824;SDS011;51060;42.640;24.356;2023-10-09T15:09:14;3.90;;;3.20;;
32824;SDS011;51060;42.640;24.356;2023-10-09T15:11:47;3.85;;;2.63;;
32824;SDS011;51060;42.640;24.356;2023-10-09T15:14:13;2.67;;;2.03;;
32824;SDS011;51060;42.640;24.356;2023-10-09T15:16:39;2.42;;;1.90;;
32824;SDS011;51060;42.640;24.356;2023-10-09T15:19:08;4.35;;;2.65;;
32824;SDS011;51060;42.640;24.356;2023-10-09T15:21:35;5.22;;;2.63;;
32824;SDS011;51060;42.640;24.356;2023-10-09T15:24:09;4.68;;;2.90;;
32824;SDS011;51060;42.640;24.356;2023-10-09T15:26:37;4.80;;;3.45;;
32824;SDS011;51060;42.640;24.356;2023-10-09T15:29:05;4.82;;;2.58;;
32824;SDS011;51060;42.640;24.356;2023-10-09T15:31:32;4.28;;;2.15;;
32824;SDS011;51060;42.640;24.356;2023-10-09T15:33:58;3.42;;;1.80;;
32824;SDS011;51060;42.640;24.356;2023-10-09T15:36:24;7.25;;;4.97;;
32824;SDS011;51060;42.640;24.356;2023-10-09T15:38:54;7.03;;;4.55;;